Archival Weather

NSFA McMurdo Sound

NSFA McMurdo Sound, Antarctica (NZCM)

Report from: Friday, September 23, 2022 5:50 AM UTC
Current time: Sunday, December 4, 2022 11:52 AM UTC

Current weather
Weather history
Weather forecast

Present weatherLight snow
Temperature-18.1°C (-0.6°F)
Wind chill-23.7°C (-10.6°F)
Dew point-25.2°C (-13.4°F)
Winds 4 kts (2.1 m/s, 4.6 mph) Vrb
Winds variableWinds variable
Visibility5 mi. (8 km)
Clouds Ceiling: Overcast 3,600 ft. (1,097 m)
Altimeter28.62 in.Hg (969 mB)
Precip. events Snow began 5:50 AM
Relative humidity54 %
Density altitude-2,646 ft. (-806 m)
Sea-level pressure107.0 kPa (1070 mB, 31.59 in.Hg)
Remarks Fully automated report
System requires maintenance
Special weather observation
Automated weather observing station with precipitation discriminator
Flight conditions Marginal Visual Meteorological Conditions
Raw dataSPECI NZCM 230550Z AUTO VRB04KT 8000 -SN OVC036 M18/M25 A2862 RMK AO2 SNB0550 SLP697 T11811252 $
An error has occurred. This application may no longer respond until reloaded. Reload 🗙